sensor_id;sensor_type;location;lat;lon;timestamp;temperature;humidity
76293;DHT22;67256;51.154;4.164;2023-06-26T00:01:07;26.70;47.40
76293;DHT22;67256;51.154;4.164;2023-06-26T00:03:33;26.70;47.20
76293;DHT22;67256;51.154;4.164;2023-06-26T00:05:59;26.70;47.40
76293;DHT22;67256;51.154;4.164;2023-06-26T00:08:26;26.80;47.10
76293;DHT22;67256;51.154;4.164;2023-06-26T00:10:52;26.90;47.30
76293;DHT22;67256;51.154;4.164;2023-06-26T00:13:18;26.80;47.10
76293;DHT22;67256;51.154;4.164;2023-06-26T00:15:44;26.90;47.20
76293;DHT22;67256;51.154;4.164;2023-06-26T00:18:10;26.60;47.40
76293;DHT22;67256;51.154;4.164;2023-06-26T00:20:36;26.60;46.80
76293;DHT22;67256;51.154;4.164;2023-06-26T00:23:02;26.60;46.60
76293;DHT22;67256;51.154;4.164;2023-06-26T00:25:30;26.60;46.50
76293;DHT22;67256;51.154;4.164;2023-06-26T00:27:55;26.60;46.10
76293;DHT22;67256;51.154;4.164;2023-06-26T00:30:21;26.40;46.80
76293;DHT22;67256;51.154;4.164;2023-06-26T00:32:47;26.50;46.70
76293;DHT22;67256;51.154;4.164;2023-06-26T00:35:13;26.50;46.40
76293;DHT22;67256;51.154;4.164;2023-06-26T00:37:38;26.60;46.30
76293;DHT22;67256;51.154;4.164;2023-06-26T00:40:05;26.50;46.40
76293;DHT22;67256;51.154;4.164;2023-06-26T00:42:31;26.30;46.60
76293;DHT22;67256;51.154;4.164;2023-06-26T00:44:57;26.20;47.30
76293;DHT22;67256;51.154;4.164;2023-06-26T00:47:24;26.30;46.90
76293;DHT22;67256;51.154;4.164;2023-06-26T00:49:50;26.00;46.80
76293;DHT22;67256;51.154;4.164;2023-06-26T00:52:16;25.90;47.40
76293;DHT22;67256;51.154;4.164;2023-06-26T00:54:42;25.80;47.40
76293;DHT22;67256;51.154;4.164;2023-06-26T00:57:08;25.90;47.70
76293;DHT22;67256;51.154;4.164;2023-06-26T00:59:34;25.70;47.90
76293;DHT22;67256;51.154;4.164;2023-06-26T01:02:00;25.60;48.40
76293;DHT22;67256;51.154;4.164;2023-06-26T01:04:27;25.70;48.40
76293;DHT22;67256;51.154;4.164;2023-06-26T01:06:59;25.80;48.30
76293;DHT22;67256;51.154;4.164;2023-06-26T01:09:25;25.80;48.50
76293;DHT22;67256;51.154;4.164;2023-06-26T01:11:51;25.80;48.90
76293;DHT22;67256;51.154;4.164;2023-06-26T01:14:17;26.00;48.60
76293;DHT22;67256;51.154;4.164;2023-06-26T01:16:44;26.00;48.50
76293;DHT22;67256;51.154;4.164;2023-06-26T01:19:23;25.80;49.00
76293;DHT22;67256;51.154;4.164;2023-06-26T01:21:56;26.00;49.00
76293;DHT22;67256;51.154;4.164;2023-06-26T01:24:25;25.60;49.70
76293;DHT22;67256;51.154;4.164;2023-06-26T01:26:57;25.60;49.80
76293;DHT22;67256;51.154;4.164;2023-06-26T01:29:24;25.50;50.10
76293;DHT22;67256;51.154;4.164;2023-06-26T01:31:51;25.60;50.30
76293;DHT22;67256;51.154;4.164;2023-06-26T01:34:17;25.70;50.30
76293;DHT22;67256;51.154;4.164;2023-06-26T01:36:46;25.80;50.20
76293;DHT22;67256;51.154;4.164;2023-06-26T01:39:17;25.70;50.60
76293;DHT22;67256;51.154;4.164;2023-06-26T01:41:43;25.70;50.70
76293;DHT22;67256;51.154;4.164;2023-06-26T01:58:02;25.70;51.50
76293;DHT22;67256;51.154;4.164;2023-06-26T02:00:28;25.50;52.10
76293;DHT22;67256;51.154;4.164;2023-06-26T02:02:54;25.50;52.30
76293;DHT22;67256;51.154;4.164;2023-06-26T02:05:20;25.40;52.70
76293;DHT22;67256;51.154;4.164;2023-06-26T02:07:46;25.50;52.30
76293;DHT22;67256;51.154;4.164;2023-06-26T02:10:12;25.50;52.20
76293;DHT22;67256;51.154;4.164;2023-06-26T02:12:38;25.50;52.30
76293;DHT22;67256;51.154;4.164;2023-06-26T02:15:04;25.60;52.50
76293;DHT22;67256;51.154;4.164;2023-06-26T02:17:30;25.60;52.50
76293;DHT22;67256;51.154;4.164;2023-06-26T02:19:56;25.50;52.70
76293;DHT22;67256;51.154;4.164;2023-06-26T02:22:22;25.60;52.60
76293;DHT22;67256;51.154;4.164;2023-06-26T02:24:48;25.50;53.00
76293;DHT22;67256;51.154;4.164;2023-06-26T02:27:14;25.10;54.10
76293;DHT22;67256;51.154;4.164;2023-06-26T02:29:41;25.10;54.50
76293;DHT22;67256;51.154;4.164;2023-06-26T02:32:07;25.00;54.70
76293;DHT22;67256;51.154;4.164;2023-06-26T02:34:34;24.90;54.80
76293;DHT22;67256;51.154;4.164;2023-06-26T02:37:00;24.90;55.30
76293;DHT22;67256;51.154;4.164;2023-06-26T02:39:27;24.90;55.10
76293;DHT22;67256;51.154;4.164;2023-06-26T02:41:52;24.90;55.30
76293;DHT22;67256;51.154;4.164;2023-06-26T02:44:18;24.90;55.20
76293;DHT22;67256;51.154;4.164;2023-06-26T02:46:44;24.90;55.40
76293;DHT22;67256;51.154;4.164;2023-06-26T02:49:10;24.80;55.60
76293;DHT22;67256;51.154;4.164;2023-06-26T02:51:36;24.80;55.70
76293;DHT22;67256;51.154;4.164;2023-06-26T02:54:02;24.90;55.60
76293;DHT22;67256;51.154;4.164;2023-06-26T02:56:28;24.70;55.80
76293;DHT22;67256;51.154;4.164;2023-06-26T02:58:57;24.50;56.80
76293;DHT22;67256;51.154;4.164;2023-06-26T03:01:24;24.30;57.40
76293;DHT22;67256;51.154;4.164;2023-06-26T03:03:50;24.10;58.00
76293;DHT22;67256;51.154;4.164;2023-06-26T03:06:16;24.10;58.00
76293;DHT22;67256;51.154;4.164;2023-06-26T03:08:42;23.90;58.30
76293;DHT22;67256;51.154;4.164;2023-06-26T03:11:08;23.80;58.50
76293;DHT22;67256;51.154;4.164;2023-06-26T03:13:35;23.80;59.00
76293;DHT22;67256;51.154;4.164;2023-06-26T03:16:02;23.90;58.50
76293;DHT22;67256;51.154;4.164;2023-06-26T03:18:28;23.90;58.50
76293;DHT22;67256;51.154;4.164;2023-06-26T03:20:54;23.80;58.50
76293;DHT22;67256;51.154;4.164;2023-06-26T03:23:21;23.70;58.90
76293;DHT22;67256;51.154;4.164;2023-06-26T03:25:47;23.70;58.90
76293;DHT22;67256;51.154;4.164;2023-06-26T03:28:13;23.50;59.40
76293;DHT22;67256;51.154;4.164;2023-06-26T03:30:39;23.60;59.10
76293;DHT22;67256;51.154;4.164;2023-06-26T03:33:05;23.40;59.60
76293;DHT22;67256;51.154;4.164;2023-06-26T03:35:31;23.20;60.20
76293;DHT22;67256;51.154;4.164;2023-06-26T03:37:57;23.10;60.80
76293;DHT22;67256;51.154;4.164;2023-06-26T03:40:23;23.20;60.30
76293;DHT22;67256;51.154;4.164;2023-06-26T03:42:49;23.20;59.90
76293;DHT22;67256;51.154;4.164;2023-06-26T03:45:16;23.20;60.10
76293;DHT22;67256;51.154;4.164;2023-06-26T03:47:41;23.30;60.00
76293;DHT22;67256;51.154;4.164;2023-06-26T03:50:08;23.30;59.70
76293;DHT22;67256;51.154;4.164;2023-06-26T03:52:33;23.40;59.40
76293;DHT22;67256;51.154;4.164;2023-06-26T03:55:00;23.30;59.60
76293;DHT22;67256;51.154;4.164;2023-06-26T03:57:26;23.20;60.00
76293;DHT22;67256;51.154;4.164;2023-06-26T03:59:52;23.20;59.90
76293;DHT22;67256;51.154;4.164;2023-06-26T04:02:18;23.10;60.20
76293;DHT22;67256;51.154;4.164;2023-06-26T04:04:44;23.00;60.50
76293;DHT22;67256;51.154;4.164;2023-06-26T04:07:10;23.00;60.30
76293;DHT22;67256;51.154;4.164;2023-06-26T04:09:36;23.20;60.00
76293;DHT22;67256;51.154;4.164;2023-06-26T04:12:02;23.30;59.60
76293;DHT22;67256;51.154;4.164;2023-06-26T04:14:28;23.50;59.00
76293;DHT22;67256;51.154;4.164;2023-06-26T04:16:53;23.60;58.40
76293;DHT22;67256;51.154;4.164;2023-06-26T04:19:19;23.70;58.20
76293;DHT22;67256;51.154;4.164;2023-06-26T04:21:45;23.30;59.40
76293;DHT22;67256;51.154;4.164;2023-06-26T04:24:12;23.40;59.00
76293;DHT22;67256;51.154;4.164;2023-06-26T04:26:37;23.50;58.50
76293;DHT22;67256;51.154;4.164;2023-06-26T04:29:03;23.60;58.30
76293;DHT22;67256;51.154;4.164;2023-06-26T04:31:29;23.70;57.90
76293;DHT22;67256;51.154;4.164;2023-06-26T04:33:55;23.80;57.60
76293;DHT22;67256;51.154;4.164;2023-06-26T04:36:21;23.60;58.00
76293;DHT22;67256;51.154;4.164;2023-06-26T04:38:47;23.70;57.90
76293;DHT22;67256;51.154;4.164;2023-06-26T04:41:15;23.80;57.60
76293;DHT22;67256;51.154;4.164;2023-06-26T04:43:41;23.60;57.70
76293;DHT22;67256;51.154;4.164;2023-06-26T04:46:07;23.40;58.20
76293;DHT22;67256;51.154;4.164;2023-06-26T04:48:32;23.30;58.40
76293;DHT22;67256;51.154;4.164;2023-06-26T04:50:58;23.20;58.60
76293;DHT22;67256;51.154;4.164;2023-06-26T04:53:24;23.10;58.90
76293;DHT22;67256;51.154;4.164;2023-06-26T04:55:51;23.30;58.30
76293;DHT22;67256;51.154;4.164;2023-06-26T04:58:18;23.20;58.50
76293;DHT22;67256;51.154;4.164;2023-06-26T05:00:44;23.30;58.40
76293;DHT22;67256;51.154;4.164;2023-06-26T05:03:11;23.30;57.80
76293;DHT22;67256;51.154;4.164;2023-06-26T05:05:38;23.50;57.10
76293;DHT22;67256;51.154;4.164;2023-06-26T05:10:40;23.50;57.00
76293;DHT22;67256;51.154;4.164;2023-06-26T05:13:06;23.60;56.60
76293;DHT22;67256;51.154;4.164;2023-06-26T05:15:31;23.60;56.90
76293;DHT22;67256;51.154;4.164;2023-06-26T05:17:57;23.30;57.80
76293;DHT22;67256;51.154;4.164;2023-06-26T05:20:23;23.30;57.10
76293;DHT22;67256;51.154;4.164;2023-06-26T05:22:49;23.30;57.60
76293;DHT22;67256;51.154;4.164;2023-06-26T05:25:15;23.50;56.80
76293;DHT22;67256;51.154;4.164;2023-06-26T05:27:41;23.70;55.90
76293;DHT22;67256;51.154;4.164;2023-06-26T05:30:08;23.70;56.20
76293;DHT22;67256;51.154;4.164;2023-06-26T05:32:34;23.80;55.70
76293;DHT22;67256;51.154;4.164;2023-06-26T05:35:02;23.60;55.60
76293;DHT22;67256;51.154;4.164;2023-06-26T05:37:31;23.60;55.80
76293;DHT22;67256;51.154;4.164;2023-06-26T05:39:57;23.50;55.80
76293;DHT22;67256;51.154;4.164;2023-06-26T05:42:23;23.60;55.80
76293;DHT22;67256;51.154;4.164;2023-06-26T05:44:50;23.80;55.10
76293;DHT22;67256;51.154;4.164;2023-06-26T05:47:16;23.70;54.80
76293;DHT22;67256;51.154;4.164;2023-06-26T05:49:42;23.50;55.50
76293;DHT22;67256;51.154;4.164;2023-06-26T05:52:08;23.20;55.60
76293;DHT22;67256;51.154;4.164;2023-06-26T05:54:34;23.00;56.80
76293;DHT22;67256;51.154;4.164;2023-06-26T05:57:00;23.20;56.00
76293;DHT22;67256;51.154;4.164;2023-06-26T05:59:27;23.20;55.70
76293;DHT22;67256;51.154;4.164;2023-06-26T06:01:53;23.40;55.10
76293;DHT22;67256;51.154;4.164;2023-06-26T06:04:19;23.50;53.70
76293;DHT22;67256;51.154;4.164;2023-06-26T06:06:45;23.20;55.10
76293;DHT22;67256;51.154;4.164;2023-06-26T06:09:11;23.20;54.30
76293;DHT22;67256;51.154;4.164;2023-06-26T06:11:36;23.00;55.50
76293;DHT22;67256;51.154;4.164;2023-06-26T06:14:02;22.90;55.90
76293;DHT22;67256;51.154;4.164;2023-06-26T06:16:28;22.80;55.00
76293;DHT22;67256;51.154;4.164;2023-06-26T06:18:55;22.50;55.80
76293;DHT22;67256;51.154;4.164;2023-06-26T06:21:21;22.20;57.20
76293;DHT22;67256;51.154;4.164;2023-06-26T06:23:47;22.30;56.40
76293;DHT22;67256;51.154;4.164;2023-06-26T06:26:13;22.50;55.80
76293;DHT22;67256;51.154;4.164;2023-06-26T06:28:39;22.70;54.70
76293;DHT22;67256;51.154;4.164;2023-06-26T06:31:05;22.60;54.50
76293;DHT22;67256;51.154;4.164;2023-06-26T06:33:31;22.50;55.00
76293;DHT22;67256;51.154;4.164;2023-06-26T06:35:57;22.50;54.60
76293;DHT22;67256;51.154;4.164;2023-06-26T06:38:22;22.20;54.80
76293;DHT22;67256;51.154;4.164;2023-06-26T06:40:48;22.10;56.00
76293;DHT22;67256;51.154;4.164;2023-06-26T06:43:14;22.30;53.90
76293;DHT22;67256;51.154;4.164;2023-06-26T06:45:41;22.00;54.10
76293;DHT22;67256;51.154;4.164;2023-06-26T06:48:06;22.00;54.40
76293;DHT22;67256;51.154;4.164;2023-06-26T06:50:32;22.00;54.60
76293;DHT22;67256;51.154;4.164;2023-06-26T06:52:58;22.20;54.70
76293;DHT22;67256;51.154;4.164;2023-06-26T06:55:24;22.00;53.90
76293;DHT22;67256;51.154;4.164;2023-06-26T06:57:51;21.90;52.30
76293;DHT22;67256;51.154;4.164;2023-06-26T07:00:17;21.70;54.30
76293;DHT22;67256;51.154;4.164;2023-06-26T07:02:45;21.60;54.60
76293;DHT22;67256;51.154;4.164;2023-06-26T07:05:12;21.60;53.80
76293;DHT22;67256;51.154;4.164;2023-06-26T07:07:38;21.70;54.10
76293;DHT22;67256;51.154;4.164;2023-06-26T07:10:10;21.50;53.40
76293;DHT22;67256;51.154;4.164;2023-06-26T07:12:36;21.50;54.50
76293;DHT22;67256;51.154;4.164;2023-06-26T07:15:03;21.40;54.00
76293;DHT22;67256;51.154;4.164;2023-06-26T07:17:30;21.50;54.50
76293;DHT22;67256;51.154;4.164;2023-06-26T07:19:56;21.80;54.00
76293;DHT22;67256;51.154;4.164;2023-06-26T07:22:23;22.10;52.50
76293;DHT22;67256;51.154;4.164;2023-06-26T07:24:49;22.20;51.60
76293;DHT22;67256;51.154;4.164;2023-06-26T07:27:15;22.10;50.90
76293;DHT22;67256;51.154;4.164;2023-06-26T07:29:42;22.00;50.60
76293;DHT22;67256;51.154;4.164;2023-06-26T07:32:08;22.00;49.40
76293;DHT22;67256;51.154;4.164;2023-06-26T07:34:34;22.20;50.90
76293;DHT22;67256;51.154;4.164;2023-06-26T07:37:00;22.40;51.00
76293;DHT22;67256;51.154;4.164;2023-06-26T07:39:26;22.20;52.20
76293;DHT22;67256;51.154;4.164;2023-06-26T07:41:52;22.20;51.30
76293;DHT22;67256;51.154;4.164;2023-06-26T07:44:18;22.20;52.10
76293;DHT22;67256;51.154;4.164;2023-06-26T07:46:44;22.10;51.90
76293;DHT22;67256;51.154;4.164;2023-06-26T07:49:11;22.10;51.60
76293;DHT22;67256;51.154;4.164;2023-06-26T07:51:37;22.00;52.40
76293;DHT22;67256;51.154;4.164;2023-06-26T07:54:03;22.10;53.10
76293;DHT22;67256;51.154;4.164;2023-06-26T07:56:29;22.10;53.40
76293;DHT22;67256;51.154;4.164;2023-06-26T07:58:54;22.30;53.50
76293;DHT22;67256;51.154;4.164;2023-06-26T08:01:21;22.50;53.40
76293;DHT22;67256;51.154;4.164;2023-06-26T08:03:46;22.30;51.20
76293;DHT22;67256;51.154;4.164;2023-06-26T08:06:12;22.00;50.70
76293;DHT22;67256;51.154;4.164;2023-06-26T08:08:38;22.00;51.40
76293;DHT22;67256;51.154;4.164;2023-06-26T08:11:03;21.90;51.60
76293;DHT22;67256;51.154;4.164;2023-06-26T08:13:29;21.80;52.40
76293;DHT22;67256;51.154;4.164;2023-06-26T08:15:56;21.80;52.80
76293;DHT22;67256;51.154;4.164;2023-06-26T08:18:21;22.00;51.20
76293;DHT22;67256;51.154;4.164;2023-06-26T08:20:47;21.80;51.80
76293;DHT22;67256;51.154;4.164;2023-06-26T08:23:13;21.80;50.70
76293;DHT22;67256;51.154;4.164;2023-06-26T08:25:39;21.80;51.20
76293;DHT22;67256;51.154;4.164;2023-06-26T08:28:04;21.70;51.30
76293;DHT22;67256;51.154;4.164;2023-06-26T08:30:31;21.70;52.90
76293;DHT22;67256;51.154;4.164;2023-06-26T08:32:57;21.60;53.30
76293;DHT22;67256;51.154;4.164;2023-06-26T08:35:23;21.60;53.60
76293;DHT22;67256;51.154;4.164;2023-06-26T08:37:49;21.60;53.90
76293;DHT22;67256;51.154;4.164;2023-06-26T08:40:17;21.70;53.50
76293;DHT22;67256;51.154;4.164;2023-06-26T08:42:44;21.90;52.90
76293;DHT22;67256;51.154;4.164;2023-06-26T08:45:10;22.10;50.80
76293;DHT22;67256;51.154;4.164;2023-06-26T08:47:37;22.10;51.30
76293;DHT22;67256;51.154;4.164;2023-06-26T08:52:39;22.50;50.60
76293;DHT22;67256;51.154;4.164;2023-06-26T08:55:09;22.50;50.10
76293;DHT22;67256;51.154;4.164;2023-06-26T08:57:36;22.30;51.30
76293;DHT22;67256;51.154;4.164;2023-06-26T09:00:03;22.30;52.10
76293;DHT22;67256;51.154;4.164;2023-06-26T09:02:29;22.40;52.90
76293;DHT22;67256;51.154;4.164;2023-06-26T09:04:56;22.60;52.60
76293;DHT22;67256;51.154;4.164;2023-06-26T09:07:22;22.60;50.70
76293;DHT22;67256;51.154;4.164;2023-06-26T09:09:48;22.60;51.20
76293;DHT22;67256;51.154;4.164;2023-06-26T09:12:13;22.70;49.70
76293;DHT22;67256;51.154;4.164;2023-06-26T09:14:39;22.80;49.70
76293;DHT22;67256;51.154;4.164;2023-06-26T09:17:06;22.80;49.90
76293;DHT22;67256;51.154;4.164;2023-06-26T09:19:32;23.10;50.10
76293;DHT22;67256;51.154;4.164;2023-06-26T09:22:00;23.10;49.60
76293;DHT22;67256;51.154;4.164;2023-06-26T09:24:26;23.20;48.40
76293;DHT22;67256;51.154;4.164;2023-06-26T09:26:52;23.20;46.10
76293;DHT22;67256;51.154;4.164;2023-06-26T09:29:19;22.80;47.50
76293;DHT22;67256;51.154;4.164;2023-06-26T09:31:45;23.00;48.00
76293;DHT22;67256;51.154;4.164;2023-06-26T09:34:11;22.70;48.10
76293;DHT22;67256;51.154;4.164;2023-06-26T09:36:37;22.60;48.60
76293;DHT22;67256;51.154;4.164;2023-06-26T09:39:04;22.80;48.40
76293;DHT22;67256;51.154;4.164;2023-06-26T09:41:37;22.90;48.60
76293;DHT22;67256;51.154;4.164;2023-06-26T09:44:05;22.80;47.20
76293;DHT22;67256;51.154;4.164;2023-06-26T09:46:31;22.70;47.50
76293;DHT22;67256;51.154;4.164;2023-06-26T09:49:08;22.70;45.60
76293;DHT22;67256;51.154;4.164;2023-06-26T09:51:37;22.70;44.60
76293;DHT22;67256;51.154;4.164;2023-06-26T09:54:03;22.60;45.30
76293;DHT22;67256;51.154;4.164;2023-06-26T09:56:30;22.80;46.60
76293;DHT22;67256;51.154;4.164;2023-06-26T09:58:58;23.00;45.80
76293;DHT22;67256;51.154;4.164;2023-06-26T10:01:24;23.00;45.60
76293;DHT22;67256;51.154;4.164;2023-06-26T10:03:50;23.00;44.80
76293;DHT22;67256;51.154;4.164;2023-06-26T10:06:28;23.00;45.10
76293;DHT22;67256;51.154;4.164;2023-06-26T10:08:56;22.80;44.80
76293;DHT22;67256;51.154;4.164;2023-06-26T10:11:24;22.70;45.30
76293;DHT22;67256;51.154;4.164;2023-06-26T10:13:51;22.80;45.90
76293;DHT22;67256;51.154;4.164;2023-06-26T10:16:28;23.10;44.70
76293;DHT22;67256;51.154;4.164;2023-06-26T10:18:58;23.30;44.40
76293;DHT22;67256;51.154;4.164;2023-06-26T10:21:24;23.20;44.80
76293;DHT22;67256;51.154;4.164;2023-06-26T10:23:52;22.80;45.00
76293;DHT22;67256;51.154;4.164;2023-06-26T10:26:20;22.60;44.90
76293;DHT22;67256;51.154;4.164;2023-06-26T10:28:47;22.60;45.90
76293;DHT22;67256;51.154;4.164;2023-06-26T10:31:20;22.50;46.40
76293;DHT22;67256;51.154;4.164;2023-06-26T10:33:48;22.50;45.80
76293;DHT22;67256;51.154;4.164;2023-06-26T10:36:19;22.60;44.10
76293;DHT22;67256;51.154;4.164;2023-06-26T10:41:14;23.00;44.60
76293;DHT22;67256;51.154;4.164;2023-06-26T10:43:42;23.20;44.40
76293;DHT22;67256;51.154;4.164;2023-06-26T10:46:09;23.50;44.20
76293;DHT22;67256;51.154;4.164;2023-06-26T10:48:58;23.80;43.60
76293;DHT22;67256;51.154;4.164;2023-06-26T10:51:26;23.80;42.80
76293;DHT22;67256;51.154;4.164;2023-06-26T10:54:01;23.70;43.50
76293;DHT22;67256;51.154;4.164;2023-06-26T10:56:44;23.80;42.90
76293;DHT22;67256;51.154;4.164;2023-06-26T11:01:46;23.80;44.40
76293;DHT22;67256;51.154;4.164;2023-06-26T11:04:13;23.80;44.40
76293;DHT22;67256;51.154;4.164;2023-06-26T11:06:45;23.70;44.20
76293;DHT22;67256;51.154;4.164;2023-06-26T11:09:15;23.50;43.60
76293;DHT22;67256;51.154;4.164;2023-06-26T11:14:31;23.30;45.20
76293;DHT22;67256;51.154;4.164;2023-06-26T11:16:57;23.60;44.30
76293;DHT22;67256;51.154;4.164;2023-06-26T11:19:26;23.80;44.10
76293;DHT22;67256;51.154;4.164;2023-06-26T11:21:58;23.80;43.40
76293;DHT22;67256;51.154;4.164;2023-06-26T11:24:25;23.10;44.60
76293;DHT22;67256;51.154;4.164;2023-06-26T11:26:51;23.00;45.80
76293;DHT22;67256;51.154;4.164;2023-06-26T11:29:17;23.10;46.30
76293;DHT22;67256;51.154;4.164;2023-06-26T11:31:42;23.10;44.70
76293;DHT22;67256;51.154;4.164;2023-06-26T11:34:12;23.20;44.70
76293;DHT22;67256;51.154;4.164;2023-06-26T11:36:39;23.10;42.20
76293;DHT22;67256;51.154;4.164;2023-06-26T11:39:07;22.90;43.80
76293;DHT22;67256;51.154;4.164;2023-06-26T11:41:35;22.70;45.10
76293;DHT22;67256;51.154;4.164;2023-06-26T11:44:05;22.70;44.80
76293;DHT22;67256;51.154;4.164;2023-06-26T11:46:33;22.80;45.60
76293;DHT22;67256;51.154;4.164;2023-06-26T11:48:59;22.80;45.60
76293;DHT22;67256;51.154;4.164;2023-06-26T11:51:28;22.70;44.80
76293;DHT22;67256;51.154;4.164;2023-06-26T11:53:54;22.70;45.60
76293;DHT22;67256;51.154;4.164;2023-06-26T11:56:20;22.90;45.50
76293;DHT22;67256;51.154;4.164;2023-06-26T11:59:06;22.90;44.20
76293;DHT22;67256;51.154;4.164;2023-06-26T12:01:42;22.80;42.70
76293;DHT22;67256;51.154;4.164;2023-06-26T12:04:11;22.90;43.20
76293;DHT22;67256;51.154;4.164;2023-06-26T12:06:43;23.10;44.70
76293;DHT22;67256;51.154;4.164;2023-06-26T12:09:11;23.20;41.80
76293;DHT22;67256;51.154;4.164;2023-06-26T12:11:42;23.20;42.00
76293;DHT22;67256;51.154;4.164;2023-06-26T12:14:09;23.50;42.20
76293;DHT22;67256;51.154;4.164;2023-06-26T12:16:36;23.80;41.30
76293;DHT22;67256;51.154;4.164;2023-06-26T12:19:03;23.80;40.40
76293;DHT22;67256;51.154;4.164;2023-06-26T12:24:12;23.20;42.20
76293;DHT22;67256;51.154;4.164;2023-06-26T12:26:41;23.00;42.70
76293;DHT22;67256;51.154;4.164;2023-06-26T12:29:11;23.10;42.60
76293;DHT22;67256;51.154;4.164;2023-06-26T12:31:48;23.00;42.50
76293;DHT22;67256;51.154;4.164;2023-06-26T12:34:17;23.10;43.20
76293;DHT22;67256;51.154;4.164;2023-06-26T12:39:12;23.60;40.20
76293;DHT22;67256;51.154;4.164;2023-06-26T12:41:55;23.50;40.30
76293;DHT22;67256;51.154;4.164;2023-06-26T12:44:25;23.70;40.20
76293;DHT22;67256;51.154;4.164;2023-06-26T12:47:03;23.90;39.90
76293;DHT22;67256;51.154;4.164;2023-06-26T12:49:37;23.80;39.10
76293;DHT22;67256;51.154;4.164;2023-06-26T12:52:06;23.80;40.50
76293;DHT22;67256;51.154;4.164;2023-06-26T12:54:33;23.60;40.60
76293;DHT22;67256;51.154;4.164;2023-06-26T12:56:59;23.50;40.40
76293;DHT22;67256;51.154;4.164;2023-06-26T12:59:25;23.40;40.60
76293;DHT22;67256;51.154;4.164;2023-06-26T13:01:51;23.40;39.50
76293;DHT22;67256;51.154;4.164;2023-06-26T13:04:17;23.50;39.10
76293;DHT22;67256;51.154;4.164;2023-06-26T13:06:43;23.50;38.60
76293;DHT22;67256;51.154;4.164;2023-06-26T13:09:09;23.80;39.00
76293;DHT22;67256;51.154;4.164;2023-06-26T13:11:36;23.50;38.80
76293;DHT22;67256;51.154;4.164;2023-06-26T13:14:03;23.50;39.20
76293;DHT22;67256;51.154;4.164;2023-06-26T13:16:29;23.70;38.40
76293;DHT22;67256;51.154;4.164;2023-06-26T13:18:55;23.80;38.10
76293;DHT22;67256;51.154;4.164;2023-06-26T13:21:21;24.00;36.40
76293;DHT22;67256;51.154;4.164;2023-06-26T13:23:47;24.30;37.20
76293;DHT22;67256;51.154;4.164;2023-06-26T13:26:13;24.10;41.10
76293;DHT22;67256;51.154;4.164;2023-06-26T13:28:39;23.90;40.30
76293;DHT22;67256;51.154;4.164;2023-06-26T13:31:04;23.90;40.20
76293;DHT22;67256;51.154;4.164;2023-06-26T13:33:31;23.50;41.50
76293;DHT22;67256;51.154;4.164;2023-06-26T13:35:57;23.50;41.10
76293;DHT22;67256;51.154;4.164;2023-06-26T13:38:24;23.50;40.00
76293;DHT22;67256;51.154;4.164;2023-06-26T13:40:55;23.50;40.70
76293;DHT22;67256;51.154;4.164;2023-06-26T13:43:27;23.50;40.80
76293;DHT22;67256;51.154;4.164;2023-06-26T13:45:54;23.60;41.40
76293;DHT22;67256;51.154;4.164;2023-06-26T13:48:20;23.60;40.70
76293;DHT22;67256;51.154;4.164;2023-06-26T13:50:46;23.50;40.60
76293;DHT22;67256;51.154;4.164;2023-06-26T13:53:12;23.30;40.20
76293;DHT22;67256;51.154;4.164;2023-06-26T13:55:39;23.20;40.70
76293;DHT22;67256;51.154;4.164;2023-06-26T13:58:05;23.30;40.70
76293;DHT22;67256;51.154;4.164;2023-06-26T14:00:33;23.30;39.90
76293;DHT22;67256;51.154;4.164;2023-06-26T14:03:05;23.20;40.20
76293;DHT22;67256;51.154;4.164;2023-06-26T14:05:35;23.60;40.10
76293;DHT22;67256;51.154;4.164;2023-06-26T14:08:03;23.70;40.30
76293;DHT22;67256;51.154;4.164;2023-06-26T14:10:30;24.00;41.10
76293;DHT22;67256;51.154;4.164;2023-06-26T14:12:55;23.90;40.20
76293;DHT22;67256;51.154;4.164;2023-06-26T14:15:21;23.70;46.30
76293;DHT22;67256;51.154;4.164;2023-06-26T14:17:47;23.30;48.50
76293;DHT22;67256;51.154;4.164;2023-06-26T14:20:16;23.10;49.60
76293;DHT22;67256;51.154;4.164;2023-06-26T14:22:43;23.00;49.70
76293;DHT22;67256;51.154;4.164;2023-06-26T14:25:10;23.00;50.60
76293;DHT22;67256;51.154;4.164;2023-06-26T14:27:37;22.80;50.90
76293;DHT22;67256;51.154;4.164;2023-06-26T14:30:06;22.60;52.10
76293;DHT22;67256;51.154;4.164;2023-06-26T14:32:35;22.80;51.20
76293;DHT22;67256;51.154;4.164;2023-06-26T14:35:02;23.00;50.70
76293;DHT22;67256;51.154;4.164;2023-06-26T14:37:29;23.30;51.10
76293;DHT22;67256;51.154;4.164;2023-06-26T14:39:55;23.50;48.90
76293;DHT22;67256;51.154;4.164;2023-06-26T14:42:21;23.30;49.70
76293;DHT22;67256;51.154;4.164;2023-06-26T14:44:47;23.50;49.30
76293;DHT22;67256;51.154;4.164;2023-06-26T14:47:16;23.50;47.30
76293;DHT22;67256;51.154;4.164;2023-06-26T14:49:41;23.40;47.30
76293;DHT22;67256;51.154;4.164;2023-06-26T14:52:07;23.10;46.90
76293;DHT22;67256;51.154;4.164;2023-06-26T14:54:34;23.20;47.60
76293;DHT22;67256;51.154;4.164;2023-06-26T14:57:02;23.40;46.00
76293;DHT22;67256;51.154;4.164;2023-06-26T14:59:28;23.60;45.90
76293;DHT22;67256;51.154;4.164;2023-06-26T15:01:54;23.50;44.90
76293;DHT22;67256;51.154;4.164;2023-06-26T15:04:20;23.40;45.40
76293;DHT22;67256;51.154;4.164;2023-06-26T15:06:46;23.40;45.90
76293;DHT22;67256;51.154;4.164;2023-06-26T15:09:12;23.60;44.80
76293;DHT22;67256;51.154;4.164;2023-06-26T15:11:38;23.70;43.80
76293;DHT22;67256;51.154;4.164;2023-06-26T15:14:04;23.80;44.20
76293;DHT22;67256;51.154;4.164;2023-06-26T15:16:30;23.80;45.30
76293;DHT22;67256;51.154;4.164;2023-06-26T15:18:55;23.90;45.60
76293;DHT22;67256;51.154;4.164;2023-06-26T15:21:21;23.80;46.00
76293;DHT22;67256;51.154;4.164;2023-06-26T15:23:48;23.70;46.50
76293;DHT22;67256;51.154;4.164;2023-06-26T15:26:13;23.70;46.50
76293;DHT22;67256;51.154;4.164;2023-06-26T15:28:39;23.80;45.70
76293;DHT22;67256;51.154;4.164;2023-06-26T15:31:05;23.90;46.70
76293;DHT22;67256;51.154;4.164;2023-06-26T15:33:31;23.90;45.90
76293;DHT22;67256;51.154;4.164;2023-06-26T15:35:57;24.00;44.80
76293;DHT22;67256;51.154;4.164;2023-06-26T15:38:22;23.50;45.00
76293;DHT22;67256;51.154;4.164;2023-06-26T15:40:48;23.30;47.00
76293;DHT22;67256;51.154;4.164;2023-06-26T15:43:14;23.20;48.30
76293;DHT22;67256;51.154;4.164;2023-06-26T15:45:40;23.00;49.10
76293;DHT22;67256;51.154;4.164;2023-06-26T15:48:06;23.00;49.20
76293;DHT22;67256;51.154;4.164;2023-06-26T15:50:32;22.60;50.00
76293;DHT22;67256;51.154;4.164;2023-06-26T15:52:58;22.70;49.70
76293;DHT22;67256;51.154;4.164;2023-06-26T15:55:24;22.70;48.60
76293;DHT22;67256;51.154;4.164;2023-06-26T15:57:50;22.70;49.10
76293;DHT22;67256;51.154;4.164;2023-06-26T16:00:16;22.70;48.80